MV Sally Archer — WDB7650 — position and weather

sailwx.info

Track history (hours):
 
Tides and Currents Weather Stations Pressure Air Temp Water Temp Dewpoint Dewpoint Depression Visibility Wind Speed Wind Dir Waves Ship Positions

MV Sally Archer

Owner: American River Transportation Co., Saint Louis, MO. More information available from US FCC via Universal Licensing System and Coast Guard Vessel Documentation Center.

Last reported at 2017-Oct-17 09:29 UTC. Time now 2017-Oct-20 01:24 UTC.
Position N 32°48' W 091°09'.

Length 60 m; draft 3.1 m.

Type: Towing. MMSI: 366945650.

Date/timePositionNaut miles runAvg speedWind from/ knotsBaromVisibWave heightAir tempDewpointWater temp
2017-Oct-17 09:29N 32°48' W 091°09'2 3.5
2017-Oct-17 08:58N 32°46' W 091°09'7 1.9
2017-Oct-17 05:30N 32°40' W 091°07'1 3.0
2017-Oct-17 05:01N 32°39' W 091°09'2 3.3
2017-Oct-17 04:31N 32°38' W 091°09'2 3.8
2017-Oct-17 04:00N 32°36' W 091°08'2 4.0
2017-Oct-17 03:30N 32°34' W 091°07'2 3.4
2017-Oct-17 03:00N 32°33' W 091°06'2 3.9
2017-Oct-17 02:30N 32°31' W 091°06'2 4.2
2017-Oct-17 02:00N 32°29' W 091°07'2 4.6
2017-Oct-17 01:30N 32°27' W 091°05'2 4.7
2017-Oct-17 01:01N 32°26' W 091°03'2 4.3
2017-Oct-17 00:30N 32°25' W 091°00'2 3.1
2017-Oct-17 00:00N 32°24' W 090°59'2 4.0
2017-Oct-16 23:30N 32°22' W 091°00'2 3.9
2017-Oct-16 23:00N 32°21' W 090°58'2 4.1
2017-Oct-16 22:29N 32°21' W 090°56'0 0.1
2017-Oct-16 21:59N 32°21' W 090°56'0 0.0
2017-Oct-16 21:29N 32°21' W 090°56'0 0.0
2017-Oct-16 20:59N 32°21' W 090°56'0 0.0
2017-Oct-16 20:29N 32°21' W 090°56'0 0.0
2017-Oct-16 19:59N 32°21' W 090°56'1 2.9
2017-Oct-16 19:30N 32°20' W 090°54'2 3.8
2017-Oct-16 19:00N 32°19' W 090°55'2 4.8
2017-Oct-16 18:30N 32°17' W 090°57'2 4.1
2017-Oct-16 18:00N 32°15' W 090°58'2 3.7
2017-Oct-16 17:30N 32°14' W 090°59'2 4.5
2017-Oct-16 17:00N 32°11' W 090°60'2 4.1
2017-Oct-16 16:29N 32°09' W 091°00'2 4.0
2017-Oct-16 16:00N 32°08' W 091°01'2 4.0
2017-Oct-16 15:30N 32°07' W 091°03'2 1.0
2017-Oct-16 13:56N 32°08' W 091°05'1 3.5
2017-Oct-16 13:31N 32°08' W 091°06'5 3.9
2017-Oct-16 12:09N 32°03' W 091°03'2 5.0
2017-Oct-16 11:47N 32°01' W 091°04'  
2017-Oct-12 14:50N 31°41' W 091°24'8 7.7
2017-Oct-12 13:50N 31°49' W 091°21'3 8.0
2017-Oct-12 13:29N 31°51' W 091°20'4 7.8
2017-Oct-12 13:00N 31°51' W 091°16'4 8.0
2017-Oct-12 12:30N 31°54' W 091°12'5 7.3
2017-Oct-12 11:47N 31°59' W 091°10'2 8.1
2017-Oct-12 11:30N 31°59' W 091°07'4 7.3
2017-Oct-12 11:00N 32°02' W 091°04'4 6.9
2017-Oct-12 10:25N 32°06' W 091°05'2 4.4
2017-Oct-12 09:55N 32°07' W 091°06'2 3.8
2017-Oct-12 09:30N 32°08' W 091°05'3 7.0
2017-Oct-12 09:00N 32°08' W 091°01'4 7.2
2017-Oct-12 08:30N 32°11' W 090°60'4 8.0
2017-Oct-12 08:00N 32°15' W 090°59'4 7.6
2017-Oct-12 07:30N 32°18' W 090°55'3 5.6
2017-Oct-12 07:00N 32°21' W 090°55'4 7.4
2017-Oct-12 06:30N 32°21' W 090°59'3 6.5
2017-Oct-12 06:00N 32°24' W 090°59'4 7.4
2017-Oct-12 05:30N 32°26' W 091°03'4 7.6
2017-Oct-12 05:00N 32°29' W 091°07'4 7.6
2017-Oct-12 04:30N 32°32' W 091°06'4 7.5
2017-Oct-12 04:00N 32°36' W 091°08'4 7.3
2017-Oct-12 03:30N 32°39' W 091°09'6 6.1
2017-Oct-12 02:29N 32°44' W 091°04'4 5.5
2017-Oct-12 01:45N 32°44' W 091°09'2 2.9
2017-Oct-12 01:00N 32°46' W 091°10'  
Track history (hours):
 
Tides and Currents Weather Stations Pressure Air Temp Water Temp Dewpoint Dewpoint Depression Visibility Wind Speed Wind Dir Waves Ship Positions

MV Sally Archer

Owner: American River Transportation Co., Saint Louis, MO. More information available from US FCC via Universal Licensing System and Coast Guard Vessel Documentation Center.

Last reported at 2017-Oct-17 09:29 UTC. Time now 2017-Oct-20 01:24 UTC.
Position N 32°48' W 091°09'.

Length 60 m; draft 3.1 m.

Type: Towing. MMSI: 366945650.

Date/timePositionNaut miles runAvg speedWind from/ knotsBaromVisibWave heightAir tempDewpointWater temp
2017-Oct-17 09:29N 32°48' W 091°09'2 3.5
2017-Oct-17 08:58N 32°46' W 091°09'7 1.9
2017-Oct-17 05:30N 32°40' W 091°07'1 3.0
2017-Oct-17 05:01N 32°39' W 091°09'2 3.3
2017-Oct-17 04:31N 32°38' W 091°09'2 3.8
2017-Oct-17 04:00N 32°36' W 091°08'2 4.0
2017-Oct-17 03:30N 32°34' W 091°07'2 3.4
2017-Oct-17 03:00N 32°33' W 091°06'2 3.9
2017-Oct-17 02:30N 32°31' W 091°06'2 4.2
2017-Oct-17 02:00N 32°29' W 091°07'2 4.6
2017-Oct-17 01:30N 32°27' W 091°05'2 4.7
2017-Oct-17 01:01N 32°26' W 091°03'2 4.3
2017-Oct-17 00:30N 32°25' W 091°00'2 3.1
2017-Oct-17 00:00N 32°24' W 090°59'2 4.0
2017-Oct-16 23:30N 32°22' W 091°00'2 3.9
2017-Oct-16 23:00N 32°21' W 090°58'2 4.1
2017-Oct-16 22:29N 32°21' W 090°56'0 0.1
2017-Oct-16 21:59N 32°21' W 090°56'0 0.0
2017-Oct-16 21:29N 32°21' W 090°56'0 0.0
2017-Oct-16 20:59N 32°21' W 090°56'0 0.0
2017-Oct-16 20:29N 32°21' W 090°56'0 0.0
2017-Oct-16 19:59N 32°21' W 090°56'1 2.9
2017-Oct-16 19:30N 32°20' W 090°54'2 3.8
2017-Oct-16 19:00N 32°19' W 090°55'2 4.8
2017-Oct-16 18:30N 32°17' W 090°57'2 4.1
2017-Oct-16 18:00N 32°15' W 090°58'2 3.7
2017-Oct-16 17:30N 32°14' W 090°59'2 4.5
2017-Oct-16 17:00N 32°11' W 090°60'2 4.1
2017-Oct-16 16:29N 32°09' W 091°00'2 4.0
2017-Oct-16 16:00N 32°08' W 091°01'2 4.0
2017-Oct-16 15:30N 32°07' W 091°03'2 1.0
2017-Oct-16 13:56N 32°08' W 091°05'1 3.5
2017-Oct-16 13:31N 32°08' W 091°06'5 3.9
2017-Oct-16 12:09N 32°03' W 091°03'2 5.0
2017-Oct-16 11:47N 32°01' W 091°04'  
2017-Oct-12 14:50N 31°41' W 091°24'8 7.7
2017-Oct-12 13:50N 31°49' W 091°21'3 8.0
2017-Oct-12 13:29N 31°51' W 091°20'4 7.8
2017-Oct-12 13:00N 31°51' W 091°16'4 8.0
2017-Oct-12 12:30N 31°54' W 091°12'5 7.3
2017-Oct-12 11:47N 31°59' W 091°10'2 8.1
2017-Oct-12 11:30N 31°59' W 091°07'4 7.3
2017-Oct-12 11:00N 32°02' W 091°04'4 6.9
2017-Oct-12 10:25N 32°06' W 091°05'2 4.4
2017-Oct-12 09:55N 32°07' W 091°06'2 3.8
2017-Oct-12 09:30N 32°08' W 091°05'3 7.0
2017-Oct-12 09:00N 32°08' W 091°01'4 7.2
2017-Oct-12 08:30N 32°11' W 090°60'4 8.0
2017-Oct-12 08:00N 32°15' W 090°59'4 7.6
2017-Oct-12 07:30N 32°18' W 090°55'3 5.6
2017-Oct-12 07:00N 32°21' W 090°55'4 7.4
2017-Oct-12 06:30N 32°21' W 090°59'3 6.5
2017-Oct-12 06:00N 32°24' W 090°59'4 7.4
2017-Oct-12 05:30N 32°26' W 091°03'4 7.6
2017-Oct-12 05:00N 32°29' W 091°07'4 7.6
2017-Oct-12 04:30N 32°32' W 091°06'4 7.5
2017-Oct-12 04:00N 32°36' W 091°08'4 7.3
2017-Oct-12 03:30N 32°39' W 091°09'6 6.1
2017-Oct-12 02:29N 32°44' W 091°04'4 5.5
2017-Oct-12 01:45N 32°44' W 091°09'2 2.9
2017-Oct-12 01:00N 32°46' W 091°10'  

Dump ship's entire track history